sensor_id;sensor_type;location;lat;lon;timestamp;P1;durP1;ratioP1;P2;durP2;ratioP2
12910;SDS011;6523;49.758;6.120;2023-09-19T00:02:14;4.83;;;2.50;;
12910;SDS011;6523;49.758;6.120;2023-09-19T00:04:39;4.77;;;2.60;;
12910;SDS011;6523;49.758;6.120;2023-09-19T00:07:05;3.60;;;2.37;;
12910;SDS011;6523;49.758;6.120;2023-09-19T00:09:31;3.73;;;2.50;;
12910;SDS011;6523;49.758;6.120;2023-09-19T00:12:02;4.13;;;2.67;;
12910;SDS011;6523;49.758;6.120;2023-09-19T00:14:31;5.43;;;2.83;;
12910;SDS011;6523;49.758;6.120;2023-09-19T00:17:00;4.70;;;3.10;;
12910;SDS011;6523;49.758;6.120;2023-09-19T00:19:30;4.60;;;2.40;;
12910;SDS011;6523;49.758;6.120;2023-09-19T00:21:57;3.23;;;2.30;;
12910;SDS011;6523;49.758;6.120;2023-09-19T00:24:23;6.37;;;3.00;;
12910;SDS011;6523;49.758;6.120;2023-09-19T00:26:49;4.90;;;2.63;;
12910;SDS011;6523;49.758;6.120;2023-09-19T00:29:14;7.27;;;2.93;;
12910;SDS011;6523;49.758;6.120;2023-09-19T00:31:43;8.27;;;2.50;;
12910;SDS011;6523;49.758;6.120;2023-09-19T00:34:09;5.63;;;2.77;;
12910;SDS011;6523;49.758;6.120;2023-09-19T00:36:35;4.03;;;2.40;;
12910;SDS011;6523;49.758;6.120;2023-09-19T00:39:04;6.93;;;2.80;;
12910;SDS011;6523;49.758;6.120;2023-09-19T00:41:31;6.13;;;3.20;;
12910;SDS011;6523;49.758;6.120;2023-09-19T00:43:57;4.37;;;2.67;;
12910;SDS011;6523;49.758;6.120;2023-09-19T00:46:23;7.47;;;3.23;;
12910;SDS011;6523;49.758;6.120;2023-09-19T00:48:50;5.07;;;2.40;;
12910;SDS011;6523;49.758;6.120;2023-09-19T00:51:16;5.73;;;2.80;;
12910;SDS011;6523;49.758;6.120;2023-09-19T00:53:45;6.97;;;2.60;;
12910;SDS011;6523;49.758;6.120;2023-09-19T00:56:12;4.37;;;2.40;;
12910;SDS011;6523;49.758;6.120;2023-09-19T00:58:38;4.03;;;2.73;;
12910;SDS011;6523;49.758;6.120;2023-09-19T01:01:05;5.77;;;2.73;;
12910;SDS011;6523;49.758;6.120;2023-09-19T01:03:32;4.30;;;2.47;;
12910;SDS011;6523;49.758;6.120;2023-09-19T01:06:01;4.97;;;2.87;;
12910;SDS011;6523;49.758;6.120;2023-09-19T01:08:27;4.20;;;2.60;;
12910;SDS011;6523;49.758;6.120;2023-09-19T01:11:07;10.97;;;2.70;;
12910;SDS011;6523;49.758;6.120;2023-09-19T01:21:43;6.10;;;2.60;;
12910;SDS011;6523;49.758;6.120;2023-09-19T01:24:46;3.93;;;2.43;;
12910;SDS011;6523;49.758;6.120;2023-09-19T01:27:53;4.57;;;2.53;;
12910;SDS011;6523;49.758;6.120;2023-09-19T01:30:37;6.27;;;2.60;;
12910;SDS011;6523;49.758;6.120;2023-09-19T01:33:08;4.40;;;2.60;;
12910;SDS011;6523;49.758;6.120;2023-09-19T01:35:37;5.97;;;2.50;;
12910;SDS011;6523;49.758;6.120;2023-09-19T01:38:04;5.67;;;2.40;;
12910;SDS011;6523;49.758;6.120;2023-09-19T01:40:43;5.30;;;2.50;;
12910;SDS011;6523;49.758;6.120;2023-09-19T01:43:25;2.60;;;2.40;;
12910;SDS011;6523;49.758;6.120;2023-09-19T01:48:40;3.67;;;2.53;;
12910;SDS011;6523;49.758;6.120;2023-09-19T01:51:08;4.00;;;2.70;;
12910;SDS011;6523;49.758;6.120;2023-09-19T01:53:40;6.30;;;2.77;;
12910;SDS011;6523;49.758;6.120;2023-09-19T01:56:07;6.03;;;2.30;;
12910;SDS011;6523;49.758;6.120;2023-09-19T01:58:39;6.57;;;2.57;;
12910;SDS011;6523;49.758;6.120;2023-09-19T02:01:11;4.73;;;2.73;;
12910;SDS011;6523;49.758;6.120;2023-09-19T02:03:41;5.43;;;2.73;;
12910;SDS011;6523;49.758;6.120;2023-09-19T02:06:13;3.97;;;2.13;;
12910;SDS011;6523;49.758;6.120;2023-09-19T02:08:43;7.17;;;2.83;;
12910;SDS011;6523;49.758;6.120;2023-09-19T02:11:10;9.03;;;3.00;;
12910;SDS011;6523;49.758;6.120;2023-09-19T02:13:38;4.40;;;2.57;;
12910;SDS011;6523;49.758;6.120;2023-09-19T02:16:05;5.73;;;3.00;;
12910;SDS011;6523;49.758;6.120;2023-09-19T02:18:32;6.87;;;2.70;;
12910;SDS011;6523;49.758;6.120;2023-09-19T02:20:59;4.17;;;2.53;;
12910;SDS011;6523;49.758;6.120;2023-09-19T02:23:29;5.60;;;2.73;;
12910;SDS011;6523;49.758;6.120;2023-09-19T02:25:55;8.00;;;2.60;;
12910;SDS011;6523;49.758;6.120;2023-09-19T02:28:25;5.83;;;2.40;;
12910;SDS011;6523;49.758;6.120;2023-09-19T02:30:55;4.60;;;2.73;;
12910;SDS011;6523;49.758;6.120;2023-09-19T02:33:21;7.13;;;2.80;;
12910;SDS011;6523;49.758;6.120;2023-09-19T02:35:47;4.83;;;2.53;;
12910;SDS011;6523;49.758;6.120;2023-09-19T02:38:12;5.80;;;2.67;;
12910;SDS011;6523;49.758;6.120;2023-09-19T02:40:39;8.37;;;2.70;;
12910;SDS011;6523;49.758;6.120;2023-09-19T02:43:05;6.00;;;2.30;;
12910;SDS011;6523;49.758;6.120;2023-09-19T02:45:32;5.07;;;2.33;;
12910;SDS011;6523;49.758;6.120;2023-09-19T02:47:57;3.93;;;1.80;;
12910;SDS011;6523;49.758;6.120;2023-09-19T02:50:23;6.37;;;2.23;;
12910;SDS011;6523;49.758;6.120;2023-09-19T02:52:48;4.57;;;1.90;;
12910;SDS011;6523;49.758;6.120;2023-09-19T02:55:18;3.87;;;2.20;;
12910;SDS011;6523;49.758;6.120;2023-09-19T03:00:17;5.47;;;2.20;;
12910;SDS011;6523;49.758;6.120;2023-09-19T03:02:47;5.50;;;3.03;;
12910;SDS011;6523;49.758;6.120;2023-09-19T03:05:13;6.27;;;2.30;;
12910;SDS011;6523;49.758;6.120;2023-09-19T03:07:39;9.03;;;2.73;;
12910;SDS011;6523;49.758;6.120;2023-09-19T03:10:07;3.47;;;2.30;;
12910;SDS011;6523;49.758;6.120;2023-09-19T03:12:33;4.63;;;2.73;;
12910;SDS011;6523;49.758;6.120;2023-09-19T03:14:59;5.63;;;2.47;;
12910;SDS011;6523;49.758;6.120;2023-09-19T03:17:25;2.90;;;2.27;;
12910;SDS011;6523;49.758;6.120;2023-09-19T03:19:50;6.57;;;2.30;;
12910;SDS011;6523;49.758;6.120;2023-09-19T03:22:16;4.20;;;2.10;;
12910;SDS011;6523;49.758;6.120;2023-09-19T03:24:43;5.23;;;2.37;;
12910;SDS011;6523;49.758;6.120;2023-09-19T03:27:09;4.87;;;2.10;;
12910;SDS011;6523;49.758;6.120;2023-09-19T03:29:35;3.30;;;2.20;;
12910;SDS011;6523;49.758;6.120;2023-09-19T03:32:01;5.23;;;2.10;;
12910;SDS011;6523;49.758;6.120;2023-09-19T03:34:26;6.30;;;2.40;;
12910;SDS011;6523;49.758;6.120;2023-09-19T03:36:52;4.33;;;2.10;;
12910;SDS011;6523;49.758;6.120;2023-09-19T03:39:18;3.83;;;2.40;;
12910;SDS011;6523;49.758;6.120;2023-09-19T03:41:43;4.67;;;2.10;;
12910;SDS011;6523;49.758;6.120;2023-09-19T03:44:10;4.43;;;2.50;;
12910;SDS011;6523;49.758;6.120;2023-09-19T03:46:35;6.30;;;2.47;;
12910;SDS011;6523;49.758;6.120;2023-09-19T03:49:01;4.00;;;2.43;;
12910;SDS011;6523;49.758;6.120;2023-09-19T03:51:27;5.10;;;2.40;;
12910;SDS011;6523;49.758;6.120;2023-09-19T03:53:53;6.30;;;2.40;;
12910;SDS011;6523;49.758;6.120;2023-09-19T03:56:18;7.43;;;2.77;;
12910;SDS011;6523;49.758;6.120;2023-09-19T03:58:44;5.47;;;2.20;;
12910;SDS011;6523;49.758;6.120;2023-09-19T04:01:09;5.90;;;2.23;;
12910;SDS011;6523;49.758;6.120;2023-09-19T04:03:35;4.47;;;2.50;;
12910;SDS011;6523;49.758;6.120;2023-09-19T04:06:12;5.47;;;2.30;;
12910;SDS011;6523;49.758;6.120;2023-09-19T04:08:41;5.33;;;2.20;;
12910;SDS011;6523;49.758;6.120;2023-09-19T04:11:07;6.50;;;2.30;;
12910;SDS011;6523;49.758;6.120;2023-09-19T04:13:32;7.03;;;2.40;;
12910;SDS011;6523;49.758;6.120;2023-09-19T04:15:58;5.37;;;2.03;;
12910;SDS011;6523;49.758;6.120;2023-09-19T04:18:23;7.03;;;2.57;;
12910;SDS011;6523;49.758;6.120;2023-09-19T04:20:50;4.97;;;2.17;;
12910;SDS011;6523;49.758;6.120;2023-09-19T04:23:16;6.20;;;2.67;;
12910;SDS011;6523;49.758;6.120;2023-09-19T04:25:42;5.67;;;3.10;;
12910;SDS011;6523;49.758;6.120;2023-09-19T04:28:08;5.47;;;2.63;;
12910;SDS011;6523;49.758;6.120;2023-09-19T04:30:36;6.27;;;2.50;;
12910;SDS011;6523;49.758;6.120;2023-09-19T04:33:02;7.13;;;2.73;;
12910;SDS011;6523;49.758;6.120;2023-09-19T04:35:28;4.80;;;2.43;;
12910;SDS011;6523;49.758;6.120;2023-09-19T04:37:56;6.37;;;2.40;;
12910;SDS011;6523;49.758;6.120;2023-09-19T04:40:22;6.40;;;2.90;;
12910;SDS011;6523;49.758;6.120;2023-09-19T04:42:55;7.60;;;2.50;;
12910;SDS011;6523;49.758;6.120;2023-09-19T04:45:24;6.63;;;2.63;;
12910;SDS011;6523;49.758;6.120;2023-09-19T04:47:51;5.87;;;2.60;;
12910;SDS011;6523;49.758;6.120;2023-09-19T04:50:18;7.63;;;2.80;;
12910;SDS011;6523;49.758;6.120;2023-09-19T04:52:44;9.80;;;2.77;;
12910;SDS011;6523;49.758;6.120;2023-09-19T04:55:13;5.33;;;2.40;;
12910;SDS011;6523;49.758;6.120;2023-09-19T04:57:43;8.97;;;2.70;;
12910;SDS011;6523;49.758;6.120;2023-09-19T05:00:13;4.07;;;2.77;;
12910;SDS011;6523;49.758;6.120;2023-09-19T05:02:40;10.07;;;2.43;;
12910;SDS011;6523;49.758;6.120;2023-09-19T05:05:07;7.90;;;2.27;;
12910;SDS011;6523;49.758;6.120;2023-09-19T05:07:33;7.60;;;2.60;;
12910;SDS011;6523;49.758;6.120;2023-09-19T05:09:59;8.70;;;2.47;;
12910;SDS011;6523;49.758;6.120;2023-09-19T05:12:28;4.17;;;2.37;;
12910;SDS011;6523;49.758;6.120;2023-09-19T05:14:54;11.30;;;2.80;;
12910;SDS011;6523;49.758;6.120;2023-09-19T05:17:20;8.40;;;3.10;;
12910;SDS011;6523;49.758;6.120;2023-09-19T05:19:46;7.67;;;2.57;;
12910;SDS011;6523;49.758;6.120;2023-09-19T05:22:11;8.20;;;2.60;;
12910;SDS011;6523;49.758;6.120;2023-09-19T05:24:37;6.43;;;2.40;;
12910;SDS011;6523;49.758;6.120;2023-09-19T05:27:04;10.47;;;2.77;;
12910;SDS011;6523;49.758;6.120;2023-09-19T05:29:29;5.47;;;2.47;;
12910;SDS011;6523;49.758;6.120;2023-09-19T05:31:55;9.17;;;2.70;;
12910;SDS011;6523;49.758;6.120;2023-09-19T05:34:20;7.13;;;3.10;;
12910;SDS011;6523;49.758;6.120;2023-09-19T05:36:46;9.97;;;2.90;;
12910;SDS011;6523;49.758;6.120;2023-09-19T05:39:13;10.87;;;2.83;;
12910;SDS011;6523;49.758;6.120;2023-09-19T05:41:39;7.67;;;2.47;;
12910;SDS011;6523;49.758;6.120;2023-09-19T05:44:05;7.90;;;2.43;;
12910;SDS011;6523;49.758;6.120;2023-09-19T05:46:32;7.53;;;2.60;;
12910;SDS011;6523;49.758;6.120;2023-09-19T05:48:57;9.57;;;3.00;;
12910;SDS011;6523;49.758;6.120;2023-09-19T05:51:23;10.03;;;2.70;;
12910;SDS011;6523;49.758;6.120;2023-09-19T05:53:48;6.57;;;2.73;;
12910;SDS011;6523;49.758;6.120;2023-09-19T05:56:14;9.47;;;2.73;;
12910;SDS011;6523;49.758;6.120;2023-09-19T05:58:40;11.00;;;2.70;;
12910;SDS011;6523;49.758;6.120;2023-09-19T06:01:09;5.57;;;3.03;;
12910;SDS011;6523;49.758;6.120;2023-09-19T06:03:35;7.17;;;3.23;;
12910;SDS011;6523;49.758;6.120;2023-09-19T06:06:01;8.87;;;2.70;;
12910;SDS011;6523;49.758;6.120;2023-09-19T06:08:27;6.67;;;2.57;;
12910;SDS011;6523;49.758;6.120;2023-09-19T06:10:53;8.67;;;2.93;;
12910;SDS011;6523;49.758;6.120;2023-09-19T06:13:19;10.70;;;2.97;;
12910;SDS011;6523;49.758;6.120;2023-09-19T06:15:45;9.60;;;2.80;;
12910;SDS011;6523;49.758;6.120;2023-09-19T06:18:12;8.83;;;2.90;;
12910;SDS011;6523;49.758;6.120;2023-09-19T06:20:47;8.47;;;2.70;;
12910;SDS011;6523;49.758;6.120;2023-09-19T06:23:16;9.90;;;2.90;;
12910;SDS011;6523;49.758;6.120;2023-09-19T06:25:42;10.13;;;2.97;;
12910;SDS011;6523;49.758;6.120;2023-09-19T06:28:11;7.90;;;3.27;;
12910;SDS011;6523;49.758;6.120;2023-09-19T06:30:39;11.73;;;2.83;;
12910;SDS011;6523;49.758;6.120;2023-09-19T06:33:05;9.87;;;3.10;;
12910;SDS011;6523;49.758;6.120;2023-09-19T06:35:32;6.20;;;2.80;;
12910;SDS011;6523;49.758;6.120;2023-09-19T06:37:58;10.17;;;3.20;;
12910;SDS011;6523;49.758;6.120;2023-09-19T06:40:28;6.57;;;2.90;;
12910;SDS011;6523;49.758;6.120;2023-09-19T06:42:56;11.30;;;3.03;;
12910;SDS011;6523;49.758;6.120;2023-09-19T06:45:22;6.77;;;2.93;;
12910;SDS011;6523;49.758;6.120;2023-09-19T06:47:48;13.27;;;3.47;;
12910;SDS011;6523;49.758;6.120;2023-09-19T06:50:15;9.00;;;3.70;;
12910;SDS011;6523;49.758;6.120;2023-09-19T06:52:44;10.37;;;3.67;;
12910;SDS011;6523;49.758;6.120;2023-09-19T06:55:11;6.27;;;3.13;;
12910;SDS011;6523;49.758;6.120;2023-09-19T06:57:38;6.13;;;3.17;;
12910;SDS011;6523;49.758;6.120;2023-09-19T07:00:05;8.20;;;3.27;;
12910;SDS011;6523;49.758;6.120;2023-09-19T07:02:44;7.03;;;3.10;;
12910;SDS011;6523;49.758;6.120;2023-09-19T07:05:10;10.47;;;3.20;;
12910;SDS011;6523;49.758;6.120;2023-09-19T07:07:35;9.53;;;3.20;;
12910;SDS011;6523;49.758;6.120;2023-09-19T07:10:02;7.07;;;3.17;;
12910;SDS011;6523;49.758;6.120;2023-09-19T07:12:30;6.07;;;2.70;;
12910;SDS011;6523;49.758;6.120;2023-09-19T07:14:57;7.70;;;2.33;;
12910;SDS011;6523;49.758;6.120;2023-09-19T07:17:23;9.30;;;2.97;;
12910;SDS011;6523;49.758;6.120;2023-09-19T07:19:49;7.40;;;3.43;;
12910;SDS011;6523;49.758;6.120;2023-09-19T07:22:15;10.77;;;3.20;;
12910;SDS011;6523;49.758;6.120;2023-09-19T07:24:41;7.77;;;2.60;;
12910;SDS011;6523;49.758;6.120;2023-09-19T07:27:06;7.57;;;2.83;;
12910;SDS011;6523;49.758;6.120;2023-09-19T07:29:32;5.93;;;2.57;;
12910;SDS011;6523;49.758;6.120;2023-09-19T07:31:57;5.37;;;2.80;;
12910;SDS011;6523;49.758;6.120;2023-09-19T07:34:23;8.23;;;2.67;;
12910;SDS011;6523;49.758;6.120;2023-09-19T07:36:49;5.93;;;2.23;;
12910;SDS011;6523;49.758;6.120;2023-09-19T07:39:15;7.67;;;2.63;;
12910;SDS011;6523;49.758;6.120;2023-09-19T07:41:40;10.43;;;2.80;;
12910;SDS011;6523;49.758;6.120;2023-09-19T07:44:07;11.87;;;2.70;;
12910;SDS011;6523;49.758;6.120;2023-09-19T07:46:34;6.73;;;2.43;;
12910;SDS011;6523;49.758;6.120;2023-09-19T07:49:00;8.20;;;2.53;;
12910;SDS011;6523;49.758;6.120;2023-09-19T07:51:26;10.13;;;2.53;;
12910;SDS011;6523;49.758;6.120;2023-09-19T07:53:52;6.40;;;2.60;;
12910;SDS011;6523;49.758;6.120;2023-09-19T07:56:17;5.10;;;2.63;;
12910;SDS011;6523;49.758;6.120;2023-09-19T07:58:45;10.87;;;2.67;;
12910;SDS011;6523;49.758;6.120;2023-09-19T08:01:10;8.60;;;2.33;;
12910;SDS011;6523;49.758;6.120;2023-09-19T08:03:39;12.60;;;2.87;;
12910;SDS011;6523;49.758;6.120;2023-09-19T08:06:06;5.17;;;2.60;;
12910;SDS011;6523;49.758;6.120;2023-09-19T08:08:32;8.73;;;2.27;;
12910;SDS011;6523;49.758;6.120;2023-09-19T08:11:05;7.40;;;2.00;;
12910;SDS011;6523;49.758;6.120;2023-09-19T08:13:41;7.50;;;2.43;;
12910;SDS011;6523;49.758;6.120;2023-09-19T08:16:11;7.20;;;2.17;;
12910;SDS011;6523;49.758;6.120;2023-09-19T08:18:38;8.23;;;2.40;;
12910;SDS011;6523;49.758;6.120;2023-09-19T08:21:05;3.93;;;2.40;;
12910;SDS011;6523;49.758;6.120;2023-09-19T08:23:33;6.73;;;2.50;;
12910;SDS011;6523;49.758;6.120;2023-09-19T08:25:58;9.83;;;2.43;;
12910;SDS011;6523;49.758;6.120;2023-09-19T08:28:28;8.00;;;2.60;;
12910;SDS011;6523;49.758;6.120;2023-09-19T08:30:54;6.00;;;2.23;;
12910;SDS011;6523;49.758;6.120;2023-09-19T08:33:20;9.23;;;2.20;;
12910;SDS011;6523;49.758;6.120;2023-09-19T08:35:46;5.40;;;2.53;;
12910;SDS011;6523;49.758;6.120;2023-09-19T08:38:11;9.97;;;2.73;;
12910;SDS011;6523;49.758;6.120;2023-09-19T08:40:39;7.17;;;2.40;;
12910;SDS011;6523;49.758;6.120;2023-09-19T08:43:06;5.33;;;2.20;;
12910;SDS011;6523;49.758;6.120;2023-09-19T08:45:33;9.50;;;2.93;;
12910;SDS011;6523;49.758;6.120;2023-09-19T08:50:43;8.80;;;2.70;;
12910;SDS011;6523;49.758;6.120;2023-09-19T08:56:08;7.67;;;2.20;;
12910;SDS011;6523;49.758;6.120;2023-09-19T08:58:38;7.27;;;2.50;;
12910;SDS011;6523;49.758;6.120;2023-09-19T09:01:27;6.70;;;2.70;;
12910;SDS011;6523;49.758;6.120;2023-09-19T09:03:53;7.77;;;2.30;;
12910;SDS011;6523;49.758;6.120;2023-09-19T09:06:20;6.07;;;2.37;;
12910;SDS011;6523;49.758;6.120;2023-09-19T09:08:48;5.67;;;2.17;;
12910;SDS011;6523;49.758;6.120;2023-09-19T09:11:15;10.33;;;1.90;;
12910;SDS011;6523;49.758;6.120;2023-09-19T09:13:42;8.13;;;2.53;;
12910;SDS011;6523;49.758;6.120;2023-09-19T09:16:12;8.53;;;2.00;;
12910;SDS011;6523;49.758;6.120;2023-09-19T09:18:39;10.03;;;2.50;;
12910;SDS011;6523;49.758;6.120;2023-09-19T09:21:06;7.33;;;2.20;;
12910;SDS011;6523;49.758;6.120;2023-09-19T09:23:31;7.07;;;2.47;;
12910;SDS011;6523;49.758;6.120;2023-09-19T09:25:58;10.90;;;2.00;;
12910;SDS011;6523;49.758;6.120;2023-09-19T09:28:28;5.27;;;1.80;;
12910;SDS011;6523;49.758;6.120;2023-09-19T09:30:55;8.17;;;1.90;;
12910;SDS011;6523;49.758;6.120;2023-09-19T09:33:23;7.60;;;1.73;;
12910;SDS011;6523;49.758;6.120;2023-09-19T09:35:53;5.57;;;1.70;;
12910;SDS011;6523;49.758;6.120;2023-09-19T09:38:22;5.70;;;1.80;;
12910;SDS011;6523;49.758;6.120;2023-09-19T09:40:59;6.70;;;2.00;;
12910;SDS011;6523;49.758;6.120;2023-09-19T09:43:31;5.90;;;2.17;;
12910;SDS011;6523;49.758;6.120;2023-09-19T09:49:18;5.87;;;2.33;;
12910;SDS011;6523;49.758;6.120;2023-09-19T09:52:03;5.70;;;1.77;;
12910;SDS011;6523;49.758;6.120;2023-09-19T09:54:41;7.30;;;2.03;;
12910;SDS011;6523;49.758;6.120;2023-09-19T09:57:24;4.40;;;1.63;;
12910;SDS011;6523;49.758;6.120;2023-09-19T09:59:54;4.37;;;1.57;;
12910;SDS011;6523;49.758;6.120;2023-09-19T10:02:27;5.00;;;1.60;;
12910;SDS011;6523;49.758;6.120;2023-09-19T10:04:57;6.97;;;2.07;;
12910;SDS011;6523;49.758;6.120;2023-09-19T10:07:39;4.30;;;1.73;;
12910;SDS011;6523;49.758;6.120;2023-09-19T10:10:08;7.20;;;1.87;;
12910;SDS011;6523;49.758;6.120;2023-09-19T10:12:42;5.03;;;1.83;;
12910;SDS011;6523;49.758;6.120;2023-09-19T10:15:11;4.33;;;1.63;;
12910;SDS011;6523;49.758;6.120;2023-09-19T10:17:42;5.33;;;1.50;;
12910;SDS011;6523;49.758;6.120;2023-09-19T10:20:09;6.23;;;1.60;;
12910;SDS011;6523;49.758;6.120;2023-09-19T10:23:03;5.97;;;1.57;;
12910;SDS011;6523;49.758;6.120;2023-09-19T10:25:34;6.57;;;1.53;;
12910;SDS011;6523;49.758;6.120;2023-09-19T10:28:02;4.07;;;1.60;;
12910;SDS011;6523;49.758;6.120;2023-09-19T10:30:35;5.67;;;1.40;;
12910;SDS011;6523;49.758;6.120;2023-09-19T10:33:08;5.53;;;2.03;;
12910;SDS011;6523;49.758;6.120;2023-09-19T10:35:34;3.87;;;1.60;;
12910;SDS011;6523;49.758;6.120;2023-09-19T10:38:06;5.13;;;1.60;;
12910;SDS011;6523;49.758;6.120;2023-09-19T10:40:34;4.00;;;1.60;;
12910;SDS011;6523;49.758;6.120;2023-09-19T10:43:02;2.50;;;1.40;;
12910;SDS011;6523;49.758;6.120;2023-09-19T10:45:30;2.93;;;1.40;;
12910;SDS011;6523;49.758;6.120;2023-09-19T10:47:57;4.77;;;1.53;;
12910;SDS011;6523;49.758;6.120;2023-09-19T10:50:22;4.77;;;1.30;;
12910;SDS011;6523;49.758;6.120;2023-09-19T10:52:48;3.83;;;1.40;;
12910;SDS011;6523;49.758;6.120;2023-09-19T10:55:23;2.50;;;1.10;;
12910;SDS011;6523;49.758;6.120;2023-09-19T10:57:50;4.47;;;1.40;;
12910;SDS011;6523;49.758;6.120;2023-09-19T11:00:16;5.60;;;1.57;;
12910;SDS011;6523;49.758;6.120;2023-09-19T11:05:37;6.60;;;1.67;;
12910;SDS011;6523;49.758;6.120;2023-09-19T11:08:05;3.37;;;1.30;;
12910;SDS011;6523;49.758;6.120;2023-09-19T11:10:51;5.50;;;1.60;;
12910;SDS011;6523;49.758;6.120;2023-09-19T11:13:26;5.27;;;1.50;;
12910;SDS011;6523;49.758;6.120;2023-09-19T11:24:27;1.87;;;1.33;;
12910;SDS011;6523;49.758;6.120;2023-09-19T11:27:09;4.37;;;1.37;;
12910;SDS011;6523;49.758;6.120;2023-09-19T11:29:38;3.33;;;1.30;;
12910;SDS011;6523;49.758;6.120;2023-09-19T11:32:04;5.03;;;1.40;;
12910;SDS011;6523;49.758;6.120;2023-09-19T11:39:50;4.03;;;1.20;;
12910;SDS011;6523;49.758;6.120;2023-09-19T11:48:18;3.20;;;1.60;;
12910;SDS011;6523;49.758;6.120;2023-09-19T11:50:44;4.83;;;1.43;;
12910;SDS011;6523;49.758;6.120;2023-09-19T11:53:12;5.03;;;1.50;;
12910;SDS011;6523;49.758;6.120;2023-09-19T11:55:40;4.60;;;1.83;;
12910;SDS011;6523;49.758;6.120;2023-09-19T11:58:10;3.30;;;2.10;;
12910;SDS011;6523;49.758;6.120;2023-09-19T12:00:43;4.33;;;1.50;;
12910;SDS011;6523;49.758;6.120;2023-09-19T12:03:10;2.93;;;1.57;;
12910;SDS011;6523;49.758;6.120;2023-09-19T12:05:39;4.57;;;1.40;;
12910;SDS011;6523;49.758;6.120;2023-09-19T12:08:04;5.27;;;1.43;;
12910;SDS011;6523;49.758;6.120;2023-09-19T12:10:43;3.30;;;1.27;;
12910;SDS011;6523;49.758;6.120;2023-09-19T12:13:15;5.77;;;1.63;;
12910;SDS011;6523;49.758;6.120;2023-09-19T12:15:45;2.53;;;1.30;;
12910;SDS011;6523;49.758;6.120;2023-09-19T12:18:34;2.83;;;1.40;;
12910;SDS011;6523;49.758;6.120;2023-09-19T12:21:00;2.47;;;1.30;;
12910;SDS011;6523;49.758;6.120;2023-09-19T12:23:29;4.77;;;1.20;;
12910;SDS011;6523;49.758;6.120;2023-09-19T12:25:55;3.63;;;1.50;;
12910;SDS011;6523;49.758;6.120;2023-09-19T12:28:21;3.07;;;1.40;;
12910;SDS011;6523;49.758;6.120;2023-09-19T12:30:53;3.17;;;1.43;;
12910;SDS011;6523;49.758;6.120;2023-09-19T12:33:23;2.07;;;1.27;;
12910;SDS011;6523;49.758;6.120;2023-09-19T12:35:51;2.83;;;1.27;;
12910;SDS011;6523;49.758;6.120;2023-09-19T12:38:28;3.63;;;1.33;;
12910;SDS011;6523;49.758;6.120;2023-09-19T12:40:57;1.77;;;1.23;;
12910;SDS011;6523;49.758;6.120;2023-09-19T12:43:28;4.70;;;1.27;;
12910;SDS011;6523;49.758;6.120;2023-09-19T12:45:57;1.73;;;1.07;;
12910;SDS011;6523;49.758;6.120;2023-09-19T12:48:25;2.40;;;1.27;;
12910;SDS011;6523;49.758;6.120;2023-09-19T12:51:07;4.87;;;1.50;;
12910;SDS011;6523;49.758;6.120;2023-09-19T12:53:41;3.10;;;1.70;;
12910;SDS011;6523;49.758;6.120;2023-09-19T12:56:09;3.63;;;1.30;;
12910;SDS011;6523;49.758;6.120;2023-09-19T12:58:56;5.90;;;1.20;;
12910;SDS011;6523;49.758;6.120;2023-09-19T13:01:28;2.67;;;1.20;;
12910;SDS011;6523;49.758;6.120;2023-09-19T13:04:10;3.03;;;1.27;;
12910;SDS011;6523;49.758;6.120;2023-09-19T13:06:49;3.23;;;1.60;;
12910;SDS011;6523;49.758;6.120;2023-09-19T13:09:15;3.67;;;1.20;;
12910;SDS011;6523;49.758;6.120;2023-09-19T13:11:42;3.60;;;1.30;;
12910;SDS011;6523;49.758;6.120;2023-09-19T13:14:23;3.43;;;1.20;;
12910;SDS011;6523;49.758;6.120;2023-09-19T13:25:19;4.93;;;1.30;;
12910;SDS011;6523;49.758;6.120;2023-09-19T13:30:13;2.30;;;1.13;;
12910;SDS011;6523;49.758;6.120;2023-09-19T13:32:39;3.70;;;1.50;;
12910;SDS011;6523;49.758;6.120;2023-09-19T13:35:08;4.33;;;1.20;;
12910;SDS011;6523;49.758;6.120;2023-09-19T13:37:34;3.43;;;1.17;;
12910;SDS011;6523;49.758;6.120;2023-09-19T13:40:06;3.13;;;1.13;;
12910;SDS011;6523;49.758;6.120;2023-09-19T13:42:33;4.47;;;1.20;;
12910;SDS011;6523;49.758;6.120;2023-09-19T13:44:59;4.50;;;1.00;;
12910;SDS011;6523;49.758;6.120;2023-09-19T13:47:25;2.87;;;1.10;;
12910;SDS011;6523;49.758;6.120;2023-09-19T13:49:51;2.80;;;0.93;;
12910;SDS011;6523;49.758;6.120;2023-09-19T13:52:18;2.80;;;1.00;;
12910;SDS011;6523;49.758;6.120;2023-09-19T13:54:44;2.70;;;1.20;;
12910;SDS011;6523;49.758;6.120;2023-09-19T13:57:10;1.77;;;1.00;;
12910;SDS011;6523;49.758;6.120;2023-09-19T13:59:35;4.27;;;1.63;;
12910;SDS011;6523;49.758;6.120;2023-09-19T14:02:01;3.77;;;1.20;;
12910;SDS011;6523;49.758;6.120;2023-09-19T14:04:30;3.70;;;1.97;;
12910;SDS011;6523;49.758;6.120;2023-09-19T14:06:56;2.23;;;1.07;;
12910;SDS011;6523;49.758;6.120;2023-09-19T14:09:22;3.53;;;1.10;;
12910;SDS011;6523;49.758;6.120;2023-09-19T14:11:49;3.37;;;1.40;;
12910;SDS011;6523;49.758;6.120;2023-09-19T14:14:17;2.73;;;1.10;;
12910;SDS011;6523;49.758;6.120;2023-09-19T14:16:46;2.10;;;1.10;;
12910;SDS011;6523;49.758;6.120;2023-09-19T14:19:13;5.70;;;1.30;;
12910;SDS011;6523;49.758;6.120;2023-09-19T14:21:41;4.47;;;1.50;;
12910;SDS011;6523;49.758;6.120;2023-09-19T14:24:07;4.60;;;1.27;;
12910;SDS011;6523;49.758;6.120;2023-09-19T14:26:36;2.87;;;1.00;;
12910;SDS011;6523;49.758;6.120;2023-09-19T14:29:02;2.60;;;1.20;;
12910;SDS011;6523;49.758;6.120;2023-09-19T14:31:28;2.70;;;1.10;;
12910;SDS011;6523;49.758;6.120;2023-09-19T14:33:54;5.17;;;1.20;;
12910;SDS011;6523;49.758;6.120;2023-09-19T14:36:24;2.30;;;1.07;;
12910;SDS011;6523;49.758;6.120;2023-09-19T14:38:52;4.10;;;1.07;;
12910;SDS011;6523;49.758;6.120;2023-09-19T14:41:21;2.43;;;1.27;;
12910;SDS011;6523;49.758;6.120;2023-09-19T14:43:50;2.57;;;1.13;;
12910;SDS011;6523;49.758;6.120;2023-09-19T14:46:16;1.97;;;1.20;;
12910;SDS011;6523;49.758;6.120;2023-09-19T14:48:43;3.10;;;1.20;;
12910;SDS011;6523;49.758;6.120;2023-09-19T14:51:11;1.83;;;1.00;;
12910;SDS011;6523;49.758;6.120;2023-09-19T14:53:36;2.87;;;1.40;;
12910;SDS011;6523;49.758;6.120;2023-09-19T14:56:04;4.07;;;1.27;;
12910;SDS011;6523;49.758;6.120;2023-09-19T14:58:32;2.03;;;1.20;;
12910;SDS011;6523;49.758;6.120;2023-09-19T15:01:05;2.13;;;1.07;;
12910;SDS011;6523;49.758;6.120;2023-09-19T15:03:32;1.77;;;1.10;;
12910;SDS011;6523;49.758;6.120;2023-09-19T15:06:09;2.43;;;1.30;;
12910;SDS011;6523;49.758;6.120;2023-09-19T15:08:44;2.30;;;0.97;;
12910;SDS011;6523;49.758;6.120;2023-09-19T15:11:12;1.87;;;1.10;;
12910;SDS011;6523;49.758;6.120;2023-09-19T15:13:41;1.60;;;1.10;;
12910;SDS011;6523;49.758;6.120;2023-09-19T15:16:07;2.03;;;1.00;;
12910;SDS011;6523;49.758;6.120;2023-09-19T15:18:36;1.87;;;1.37;;
12910;SDS011;6523;49.758;6.120;2023-09-19T15:21:03;2.00;;;1.10;;
12910;SDS011;6523;49.758;6.120;2023-09-19T15:23:30;2.07;;;1.07;;
12910;SDS011;6523;49.758;6.120;2023-09-19T15:25:57;4.20;;;1.33;;
12910;SDS011;6523;49.758;6.120;2023-09-19T15:28:23;1.60;;;1.20;;
12910;SDS011;6523;49.758;6.120;2023-09-19T15:30:57;1.43;;;1.10;;
12910;SDS011;6523;49.758;6.120;2023-09-19T15:33:24;2.70;;;1.50;;
12910;SDS011;6523;49.758;6.120;2023-09-19T15:35:49;1.83;;;1.20;;
12910;SDS011;6523;49.758;6.120;2023-09-19T15:38:15;1.80;;;1.10;;
12910;SDS011;6523;49.758;6.120;2023-09-19T15:40:46;1.63;;;1.10;;
12910;SDS011;6523;49.758;6.120;2023-09-19T15:43:12;2.17;;;1.30;;
12910;SDS011;6523;49.758;6.120;2023-09-19T15:45:37;1.70;;;1.20;;
12910;SDS011;6523;49.758;6.120;2023-09-19T15:48:03;1.60;;;1.13;;
12910;SDS011;6523;49.758;6.120;2023-09-19T15:50:30;2.83;;;1.10;;
12910;SDS011;6523;49.758;6.120;2023-09-19T15:52:55;2.67;;;1.10;;
12910;SDS011;6523;49.758;6.120;2023-09-19T15:55:21;1.90;;;1.07;;
12910;SDS011;6523;49.758;6.120;2023-09-19T15:57:46;2.57;;;1.40;;
12910;SDS011;6523;49.758;6.120;2023-09-19T16:00:13;2.70;;;1.20;;
12910;SDS011;6523;49.758;6.120;2023-09-19T16:02:42;2.67;;;1.37;;
12910;SDS011;6523;49.758;6.120;2023-09-19T16:05:08;2.90;;;1.50;;